Time;durP1;ratioP1;P1;durP2;ratioP2;P2;SDS_P1;SDS_P2;PMS_P1;PMS_P2;Temp;Humidity;BMP_temperature;BMP_pressure;BME280_temperature;BME280_humidity;BME280_pressure;Samples;Min_cycle;Max_cycle;Signal;HPM_P1;HPM_P2
2023/05/29 00:00:26;;;;;;;22.92;3.60;;;11.80;99.90;;;;;;5028592;28;20061;-33
2023/05/29 00:02:53;;;;;;;17.05;3.15;;;11.80;99.90;;;;;;5028936;28;20057;-32
2023/05/29 00:05:20;;;;;;;17.98;3.85;;;11.70;99.90;;;;;;5030736;28;20119;-33
2023/05/29 00:07:48;;;;;;;19.75;3.55;;;11.70;99.90;;;;;;5030304;28;20050;-34
2023/05/29 00:10:15;;;;;;;19.92;3.67;;;11.70;99.90;;;;;;5028805;28;20128;-32
2023/05/29 00:12:42;;;;;;;16.33;3.15;;;11.70;99.90;;;;;;5028856;28;20088;-32
2023/05/29 00:15:10;;;;;;;18.40;3.60;;;11.60;99.90;;;;;;5027510;28;20053;-33
2023/05/29 00:17:39;;;;;;;19.73;4.15;;;11.50;99.90;;;;;;5031815;28;20046;-32
2023/05/29 00:20:09;;;;;;;18.63;3.72;;;11.50;99.90;;;;;;5030964;28;20053;-32
2023/05/29 00:22:37;;;;;;;15.10;3.30;;;11.50;99.90;;;;;;5028151;28;20046;-33
2023/05/29 00:25:05;;;;;;;18.85;3.20;;;11.50;99.90;;;;;;5028428;28;20378;-31
2023/05/29 00:27:32;;;;;;;22.77;3.42;;;11.40;99.90;;;;;;5029941;28;20124;-32
2023/05/29 00:29:59;;;;;;;17.63;3.15;;;11.40;99.90;;;;;;5029790;28;20045;-33
2023/05/29 00:32:27;;;;;;;15.70;3.03;;;11.40;99.90;;;;;;5029906;28;20081;-34
2023/05/29 00:34:55;;;;;;;19.02;3.85;;;11.40;99.90;;;;;;5030695;28;20085;-32
2023/05/29 00:37:22;;;;;;;17.15;3.35;;;11.40;99.90;;;;;;5029558;28;20539;-33
2023/05/29 00:39:49;;;;;;;22.70;4.10;;;11.30;99.90;;;;;;5029520;28;20052;-33
2023/05/29 00:42:16;;;;;;;15.85;3.17;;;11.30;99.90;;;;;;5020839;28;20052;-33
2023/05/29 00:44:42;;;;;;;25.60;4.60;;;11.30;99.90;;;;;;5029701;28;20049;-31
2023/05/29 00:47:09;;;;;;;20.60;3.65;;;11.30;99.90;;;;;;5033723;28;20085;-33
2023/05/29 00:49:36;;;;;;;16.10;3.42;;;11.20;99.90;;;;;;5034372;28;20054;-34
2023/05/29 00:52:06;;;;;;;14.60;3.25;;;11.20;99.90;;;;;;5032926;28;20127;-33
2023/05/29 00:54:33;;;;;;;18.05;3.25;;;11.20;99.90;;;;;;5032031;28;20116;-32
2023/05/29 00:57:01;;;;;;;18.50;3.10;;;11.20;99.90;;;;;;5033107;28;20478;-33
2023/05/29 00:59:28;;;;;;;12.93;3.58;;;11.20;99.90;;;;;;5032938;28;20053;-32
2023/05/29 01:01:55;;;;;;;16.33;3.00;;;11.20;99.90;;;;;;5032340;28;20477;-32
2023/05/29 01:04:23;;;;;;;14.77;2.67;;;11.20;99.90;;;;;;5031734;28;20133;-33
2023/05/29 01:06:51;;;;;;;15.55;2.88;;;11.10;99.90;;;;;;5033779;28;20409;-34
2023/05/29 01:09:19;;;;;;;15.73;3.20;;;11.00;99.90;;;;;;5032777;28;20047;-31
2023/05/29 01:11:50;;;;;;;14.55;2.83;;;11.10;99.90;;;;;;5033737;28;20485;-33
2023/05/29 01:14:24;;;;;;;18.70;2.90;;;11.00;99.90;;;;;;5032394;28;20107;-33
2023/05/29 01:16:56;;;;;;;18.02;3.53;;;11.00;99.90;;;;;;5033270;28;20073;-32
2023/05/29 01:19:27;;;;;;;18.17;3.45;;;10.90;99.90;;;;;;5024298;28;20070;-34
2023/05/29 01:21:59;;;;;;;21.23;3.60;;;10.90;99.90;;;;;;5030544;28;20072;-32
2023/05/29 01:24:33;;;;;;;13.43;2.72;;;10.90;99.90;;;;;;5033956;28;20560;-33
2023/05/29 01:27:03;;;;;;;13.55;2.55;;;10.80;99.90;;;;;;5031727;28;20401;-34
2023/05/29 01:29:31;;;;;;;19.95;2.78;;;10.70;99.90;;;;;;5032422;28;20065;-32
2023/05/29 01:31:57;;;;;;;14.38;2.65;;;10.80;99.90;;;;;;5033966;28;20409;-34
2023/05/29 01:34:24;;;;;;;21.42;3.78;;;10.70;99.90;;;;;;5029104;28;20085;-33
2023/05/29 01:36:51;;;;;;;18.92;2.95;;;10.80;99.90;;;;;;5021121;28;20045;-33
2023/05/29 01:39:18;;;;;;;13.63;3.00;;;10.80;99.90;;;;;;5028699;28;20088;-33
2023/05/29 01:41:45;;;;;;;12.82;2.75;;;10.70;99.90;;;;;;5033592;28;20053;-33
2023/05/29 01:44:13;;;;;;;25.45;3.70;;;10.70;99.90;;;;;;5032930;28;20497;-32
2023/05/29 01:46:40;;;;;;;14.32;3.35;;;10.70;99.90;;;;;;5033877;28;20473;-32
2023/05/29 01:49:07;;;;;;;18.30;3.90;;;10.70;99.90;;;;;;5031974;28;20127;-32
2023/05/29 01:51:35;;;;;;;14.35;2.60;;;10.60;99.90;;;;;;5031784;28;20104;-32
2023/05/29 01:54:02;;;;;;;14.00;2.85;;;10.60;99.90;;;;;;5034143;28;20060;-32
2023/05/29 01:56:29;;;;;;;18.75;3.67;;;10.60;99.90;;;;;;5032037;28;20054;-32
2023/05/29 01:58:56;;;;;;;16.30;3.10;;;10.60;99.90;;;;;;5031179;28;20054;-33
2023/05/29 02:01:25;;;;;;;13.55;2.85;;;10.60;99.90;;;;;;5033416;28;20092;-33
2023/05/29 02:03:51;;;;;;;17.35;3.00;;;10.60;99.90;;;;;;5032525;28;20053;-33
2023/05/29 02:06:19;;;;;;;22.90;3.22;;;10.60;99.90;;;;;;5033876;28;20132;-32
2023/05/29 02:08:45;;;;;;;14.48;3.15;;;10.60;99.90;;;;;;5031232;28;20054;-33
2023/05/29 02:11:12;;;;;;;15.25;2.78;;;10.50;99.90;;;;;;5032670;28;20080;-33
2023/05/29 02:13:39;;;;;;;14.75;2.97;;;10.50;99.90;;;;;;5031205;28;20062;-33
2023/05/29 02:16:06;;;;;;;15.63;3.30;;;10.50;99.90;;;;;;5032387;28;20163;-32
2023/05/29 02:18:35;;;;;;;14.35;3.10;;;10.50;99.90;;;;;;5033220;28;20597;-32
2023/05/29 02:21:02;;;;;;;15.60;3.10;;;10.50;99.90;;;;;;5032396;28;20055;-32
2023/05/29 02:23:28;;;;;;;18.33;3.70;;;10.40;99.90;;;;;;5031977;28;20512;-32
2023/05/29 02:25:55;;;;;;;17.17;3.28;;;10.40;99.90;;;;;;5030913;28;20069;-33
2023/05/29 02:28:22;;;;;;;16.98;3.30;;;10.40;99.90;;;;;;5030591;28;20438;-33
2023/05/29 02:30:49;;;;;;;15.85;2.80;;;10.40;99.90;;;;;;5023907;28;20074;-33
2023/05/29 02:33:15;;;;;;;28.60;4.88;;;10.40;99.90;;;;;;5046509;28;20107;-32
2023/05/29 02:35:44;;;;;;;14.80;3.22;;;10.40;99.90;;;;;;5031600;28;20096;-32
2023/05/29 02:38:10;;;;;;;13.35;3.20;;;10.30;99.90;;;;;;5031235;28;20048;-33
2023/05/29 02:40:37;;;;;;;13.10;2.70;;;10.30;99.90;;;;;;5031957;28;20050;-33
2023/05/29 02:43:04;;;;;;;17.50;3.47;;;10.30;99.90;;;;;;5030531;28;20049;-33
2023/05/29 02:45:31;;;;;;;17.20;3.40;;;10.30;99.90;;;;;;5032137;28;20049;-33
2023/05/29 02:47:57;;;;;;;15.85;3.25;;;10.20;99.90;;;;;;5021835;28;20052;-32
2023/05/29 02:50:24;;;;;;;16.95;3.00;;;10.20;99.90;;;;;;5029520;28;20119;-33
2023/05/29 02:52:52;;;;;;;14.32;2.97;;;10.10;99.90;;;;;;5031267;28;20055;-33
2023/05/29 02:55:19;;;;;;;20.98;3.80;;;10.10;99.90;;;;;;5028669;28;20054;-32
2023/05/29 02:57:48;;;;;;;16.50;3.53;;;10.10;99.90;;;;;;5029927;28;20054;-32
2023/05/29 03:00:15;;;;;;;22.40;4.07;;;10.00;99.90;;;;;;5032202;28;20049;-31
2023/05/29 03:02:42;;;;;;;17.73;2.88;;;10.00;99.90;;;;;;5031640;28;20141;-33
2023/05/29 03:05:10;;;;;;;15.85;2.97;;;10.00;99.90;;;;;;5031077;28;20108;-33
2023/05/29 03:07:36;;;;;;;13.95;2.80;;;10.00;99.90;;;;;;5030950;28;20053;-32
2023/05/29 03:10:05;;;;;;;13.50;2.92;;;10.00;99.90;;;;;;5030557;28;20257;-33
2023/05/29 03:12:32;;;;;;;12.77;2.83;;;9.90;99.90;;;;;;5032712;28;20140;-32
2023/05/29 03:14:59;;;;;;;20.70;3.30;;;9.90;99.90;;;;;;5032601;28;20103;-32
2023/05/29 03:17:25;;;;;;;27.77;3.83;;;9.90;99.90;;;;;;5029492;28;20140;-31
2023/05/29 03:19:52;;;;;;;16.25;2.97;;;9.80;99.90;;;;;;5031205;28;20049;-32
2023/05/29 03:22:19;;;;;;;18.10;3.30;;;9.80;99.90;;;;;;5030061;28;20477;-32
2023/05/29 03:24:46;;;;;;;18.42;3.42;;;9.80;99.90;;;;;;5030736;28;20520;-32
2023/05/29 03:27:14;;;;;;;20.42;3.10;;;9.80;99.90;;;;;;5031369;28;20057;-33
2023/05/29 03:29:41;;;;;;;13.30;2.75;;;9.70;99.90;;;;;;5029531;28;20056;-32
2023/05/29 03:32:08;;;;;;;14.13;2.72;;;9.70;99.90;;;;;;5030761;28;20077;-32
2023/05/29 03:34:34;;;;;;;16.42;2.95;;;9.70;99.90;;;;;;5030284;28;20095;-33
2023/05/29 03:37:01;;;;;;;15.32;2.92;;;9.70;99.90;;;;;;5032340;28;20049;-32
2023/05/29 03:39:28;;;;;;;17.27;3.25;;;9.70;99.90;;;;;;5029066;28;20061;-32
2023/05/29 03:41:55;;;;;;;20.13;3.55;;;9.70;99.90;;;;;;5029349;28;20341;-31
2023/05/29 03:44:23;;;;;;;15.57;3.10;;;9.70;99.90;;;;;;5031788;28;20096;-32
2023/05/29 03:46:50;;;;;;;17.67;3.28;;;9.70;99.90;;;;;;5030490;28;20080;-31
2023/05/29 03:49:17;;;;;;;19.63;3.58;;;9.70;99.90;;;;;;5026181;28;20128;-32
2023/05/29 03:51:44;;;;;;;13.20;2.95;;;9.70;99.90;;;;;;5031897;28;20420;-31
2023/05/29 03:54:11;;;;;;;13.40;3.05;;;9.70;99.90;;;;;;5030945;28;20527;-33
2023/05/29 03:56:37;;;;;;;19.70;3.60;;;9.60;99.90;;;;;;5029956;28;20089;-31
2023/05/29 03:59:04;;;;;;;18.05;3.22;;;9.70;99.90;;;;;;5029736;28;20058;-32
2023/05/29 04:01:32;;;;;;;16.25;3.10;;;9.70;99.90;;;;;;5029231;28;20045;-32
2023/05/29 04:03:59;;;;;;;21.23;3.55;;;9.70;99.90;;;;;;5029680;28;20564;-32
2023/05/29 04:06:26;;;;;;;14.32;3.50;;;9.60;99.90;;;;;;5027972;28;20563;-32
2023/05/29 04:08:53;;;;;;;14.40;3.17;;;9.60;99.90;;;;;;5029308;28;20482;-32
2023/05/29 04:11:22;;;;;;;14.90;3.10;;;9.60;99.90;;;;;;5030394;28;20084;-33
2023/05/29 04:13:48;;;;;;;15.95;2.80;;;9.60;99.90;;;;;;5030461;28;20053;-33
2023/05/29 04:16:15;;;;;;;14.02;3.08;;;9.60;99.90;;;;;;5031817;28;20045;-33
2023/05/29 04:18:43;;;;;;;16.67;2.97;;;9.60;99.90;;;;;;5025317;28;20089;-32
2023/05/29 04:21:11;;;;;;;14.10;2.53;;;9.70;99.90;;;;;;5030268;28;20076;-33
2023/05/29 04:23:37;;;;;;;16.52;3.35;;;9.60;99.90;;;;;;5027036;28;20057;-32
2023/05/29 04:26:05;;;;;;;16.15;3.30;;;9.60;99.90;;;;;;5030285;28;20041;-33
2023/05/29 04:28:32;;;;;;;15.23;3.08;;;9.60;99.90;;;;;;5030493;28;20460;-33
2023/05/29 04:30:59;;;;;;;18.98;3.65;;;9.60;99.90;;;;;;5027806;28;20041;-32
2023/05/29 04:33:28;;;;;;;19.85;3.45;;;9.60;99.90;;;;;;5030196;28;20049;-34
2023/05/29 04:35:56;;;;;;;13.23;2.75;;;9.60;99.90;;;;;;5030356;28;20049;-33
2023/05/29 04:38:24;;;;;;;14.68;2.92;;;9.70;99.90;;;;;;5028600;28;20140;-31
2023/05/29 04:40:52;;;;;;;17.40;3.45;;;9.60;99.90;;;;;;5011754;28;20486;-32
2023/05/29 04:43:18;;;;;;;16.65;3.33;;;9.60;99.90;;;;;;5025343;28;20132;-32
2023/05/29 04:45:45;;;;;;;20.35;3.10;;;9.60;99.90;;;;;;5030836;28;20072;-32
2023/05/29 04:48:12;;;;;;;19.50;4.13;;;9.60;99.90;;;;;;5030300;28;20089;-33
2023/05/29 04:50:39;;;;;;;16.48;3.22;;;9.70;99.90;;;;;;5028585;28;20473;-33
2023/05/29 04:53:07;;;;;;;11.90;2.88;;;9.60;99.90;;;;;;5031281;28;20448;-32
2023/05/29 04:55:34;;;;;;;14.65;3.33;;;9.70;99.90;;;;;;5030431;28;20080;-33
2023/05/29 04:58:01;;;;;;;19.13;3.13;;;9.80;99.90;;;;;;5029794;28;20054;-33
2023/05/29 05:00:27;;;;;;;16.98;2.97;;;9.80;99.90;;;;;;5027084;28;20045;-31
2023/05/29 05:02:55;;;;;;;14.68;2.88;;;9.80;99.90;;;;;;5028808;28;20119;-32
2023/05/29 05:05:22;;;;;;;15.65;3.03;;;9.90;99.90;;;;;;5029320;28;20126;-33
2023/05/29 05:07:48;;;;;;;17.02;3.80;;;9.90;99.90;;;;;;5030325;28;20041;-33
2023/05/29 05:10:17;;;;;;;17.38;3.28;;;9.90;99.90;;;;;;5025636;28;20093;-32
2023/05/29 05:12:43;;;;;;;15.85;3.08;;;10.00;99.90;;;;;;5028898;28;20053;-32
2023/05/29 05:15:11;;;;;;;18.40;3.55;;;10.00;99.90;;;;;;5030051;28;20119;-32
2023/05/29 05:17:38;;;;;;;18.55;3.45;;;10.00;99.90;;;;;;5029675;28;20056;-32
2023/05/29 05:20:05;;;;;;;16.77;2.97;;;10.10;99.90;;;;;;5028355;28;20068;-33
2023/05/29 05:22:32;;;;;;;17.90;3.10;;;10.20;99.90;;;;;;5030146;28;20061;-33
2023/05/29 05:25:00;;;;;;;16.70;3.20;;;10.20;99.90;;;;;;5028603;28;20077;-33
2023/05/29 05:27:28;;;;;;;18.27;3.15;;;10.30;99.90;;;;;;5029964;28;20088;-33
2023/05/29 05:29:55;;;;;;;20.52;3.70;;;10.40;99.90;;;;;;5028210;28;20073;-33
2023/05/29 05:32:22;;;;;;;15.68;2.78;;;10.50;99.90;;;;;;5031230;28;20504;-33
2023/05/29 05:34:48;;;;;;;16.55;3.50;;;10.50;99.90;;;;;;5032424;28;20088;-33
2023/05/29 05:37:15;;;;;;;19.67;3.65;;;10.60;99.90;;;;;;5032017;28;20081;-33
2023/05/29 05:39:42;;;;;;;18.17;3.70;;;10.70;99.90;;;;;;5033494;28;20080;-33
2023/05/29 05:42:09;;;;;;;21.02;3.28;;;10.80;99.90;;;;;;5034250;28;20103;-33
2023/05/29 05:44:37;;;;;;;20.65;3.75;;;10.90;99.90;;;;;;5032597;28;20045;-31
2023/05/29 05:47:04;;;;;;;20.05;3.08;;;11.00;99.90;;;;;;5032434;28;20489;-34
2023/05/29 05:49:31;;;;;;;17.25;3.70;;;11.10;99.90;;;;;;5032907;28;20162;-32
2023/05/29 05:51:58;;;;;;;19.38;3.20;;;11.20;99.90;;;;;;5033464;28;20088;-33
2023/05/29 05:54:25;;;;;;;25.15;4.55;;;11.30;99.90;;;;;;5034554;28;20084;-32
2023/05/29 05:56:51;;;;;;;21.77;3.83;;;11.40;99.90;;;;;;5030582;28;20085;-31
2023/05/29 05:59:18;;;;;;;21.85;4.25;;;11.50;99.90;;;;;;5029899;28;20085;-33
2023/05/29 06:01:46;;;;;;;23.73;3.83;;;11.60;99.90;;;;;;5030213;28;20081;-33
2023/05/29 06:04:13;;;;;;;14.98;3.47;;;11.80;99.90;;;;;;5031724;28;20148;-33
2023/05/29 06:06:40;;;;;;;20.23;3.78;;;11.80;99.90;;;;;;5033418;28;20077;-33
2023/05/29 06:09:07;;;;;;;20.20;3.45;;;12.00;99.90;;;;;;5032025;28;20567;-32
2023/05/29 06:11:35;;;;;;;22.45;3.33;;;12.10;99.90;;;;;;5027790;28;20204;-34
2023/05/29 06:14:02;;;;;;;17.60;3.83;;;12.20;99.90;;;;;;5021253;28;20065;-32
2023/05/29 06:16:29;;;;;;;23.38;4.38;;;12.30;99.90;;;;;;5031182;28;20138;-34
2023/05/29 06:18:57;;;;;;;18.17;3.38;;;12.40;99.90;;;;;;5030384;28;20095;-34
2023/05/29 06:21:24;;;;;;;20.13;3.45;;;12.50;99.90;;;;;;5030407;28;20080;-34
2023/05/29 06:23:51;;;;;;;19.33;3.53;;;12.60;99.90;;;;;;5030976;28;20060;-34
2023/05/29 06:26:18;;;;;;;15.10;3.42;;;12.60;99.90;;;;;;5047764;28;20041;-33
2023/05/29 06:28:44;;;;;;;24.08;4.10;;;12.70;99.90;;;;;;5028185;28;20511;-34
2023/05/29 06:31:11;;;;;;;23.00;3.92;;;12.80;99.90;;;;;;5031897;28;20105;-34
2023/05/29 06:33:38;;;;;;;22.75;3.80;;;12.90;99.90;;;;;;5031933;28;20050;-33
2023/05/29 06:36:07;;;;;;;24.58;3.90;;;13.00;99.90;;;;;;5028135;28;20053;-32
2023/05/29 06:38:33;;;;;;;17.27;3.67;;;13.10;99.90;;;;;;5028670;28;20118;-34
2023/05/29 06:41:00;;;;;;;22.13;4.18;;;13.10;99.90;;;;;;5028231;28;20089;-34
2023/05/29 06:43:28;;;;;;;20.23;4.07;;;13.10;99.90;;;;;;5028689;28;20057;-34
2023/05/29 06:45:55;;;;;;;21.27;4.43;;;13.20;99.90;;;;;;5030396;28;20127;-33
2023/05/29 06:48:22;;;;;;;19.73;4.25;;;13.20;99.90;;;;;;5028850;28;20144;-33
2023/05/29 06:50:49;;;;;;;18.63;3.75;;;13.20;99.90;;;;;;5032023;28;20489;-35
2023/05/29 06:53:17;;;;;;;18.92;3.70;;;13.30;99.90;;;;;;5028091;28;20107;-33
2023/05/29 06:55:43;;;;;;;22.88;4.35;;;13.50;99.90;;;;;;5028762;28;20145;-31
2023/05/29 06:58:10;;;;;;;23.73;4.22;;;13.60;99.90;;;;;;5027903;28;20173;-34
2023/05/29 07:00:37;;;;;;;20.05;4.25;;;13.60;99.90;;;;;;5030143;28;20145;-33
2023/05/29 07:03:04;;;;;;;23.98;3.90;;;13.70;99.90;;;;;;5032411;28;20132;-34
2023/05/29 07:05:30;;;;;;;20.55;3.97;;;13.80;99.90;;;;;;5029232;28;20119;-34
2023/05/29 07:07:57;;;;;;;20.05;4.00;;;13.90;99.90;;;;;;5031042;28;20053;-34
2023/05/29 07:10:25;;;;;;;20.50;4.38;;;14.00;99.90;;;;;;5031104;28;20100;-33
2023/05/29 07:12:52;;;;;;;462.38;386.40;;;14.10;99.90;;;;;;5030633;28;20053;-34
2023/05/29 07:15:19;;;;;;;75.70;35.22;;;14.10;99.90;;;;;;5031605;28;20488;-34
2023/05/29 07:17:46;;;;;;;23.75;8.15;;;14.20;99.90;;;;;;5031038;28;20134;-33
2023/05/29 07:20:14;;;;;;;25.42;5.53;;;14.40;99.80;;;;;;5027823;28;20100;-34
2023/05/29 07:22:41;;;;;;;22.55;4.65;;;14.40;99.80;;;;;;5028438;28;20461;-33
2023/05/29 07:25:09;;;;;;;18.25;5.00;;;14.50;99.30;;;;;;5027861;28;20045;-34
2023/05/29 07:27:37;;;;;;;20.50;4.35;;;14.50;99.10;;;;;;5031220;28;20077;-33
2023/05/29 07:30:05;;;;;;;22.73;4.75;;;14.60;98.90;;;;;;5028556;28;20464;-34
2023/05/29 07:32:32;;;;;;;24.10;4.20;;;14.70;98.60;;;;;;5031378;28;20060;-35
2023/05/29 07:34:58;;;;;;;22.10;4.40;;;14.80;98.60;;;;;;5028189;28;20497;-33
2023/05/29 07:37:25;;;;;;;19.02;4.00;;;14.90;98.20;;;;;;5028760;28;20438;-34
2023/05/29 07:39:52;;;;;;;18.83;4.03;;;15.00;98.00;;;;;;5029310;28;20046;-34
2023/05/29 07:42:19;;;;;;;18.42;4.13;;;15.10;98.10;;;;;;5018954;28;20133;-33
2023/05/29 07:44:47;;;;;;;30.35;4.97;;;15.20;97.70;;;;;;5030631;28;20041;-35
2023/05/29 07:47:14;;;;;;;24.35;4.75;;;15.20;97.20;;;;;;5029585;28;20090;-34
2023/05/29 07:49:41;;;;;;;27.95;5.25;;;15.20;97.30;;;;;;5029607;28;20069;-34
2023/05/29 07:52:08;;;;;;;19.13;4.22;;;15.30;97.40;;;;;;5028731;28;20132;-32
2023/05/29 07:54:38;;;;;;;21.13;4.90;;;15.40;97.40;;;;;;5023965;28;20061;-35
2023/05/29 07:57:09;;;;;;;23.58;4.20;;;15.60;97.60;;;;;;5026719;28;20054;-32
2023/05/29 07:59:36;;;;;;;18.67;4.77;;;15.70;97.30;;;;;;5029518;28;20486;-35
2023/05/29 08:02:04;;;;;;;21.73;4.22;;;15.70;96.70;;;;;;5029380;28;20315;-34
2023/05/29 08:04:32;;;;;;;25.58;5.00;;;15.80;96.20;;;;;;5030288;28;20064;-34
2023/05/29 08:06:59;;;;;;;30.58;4.28;;;15.90;96.40;;;;;;5027130;28;20056;-34
2023/05/29 08:09:26;;;;;;;21.58;5.20;;;16.10;96.50;;;;;;5029262;28;20095;-35
2023/05/29 08:11:52;;;;;;;23.05;5.05;;;16.30;95.90;;;;;;5028125;28;20092;-33
2023/05/29 08:14:20;;;;;;;23.48;4.50;;;16.40;95.70;;;;;;5027952;28;20132;-35
2023/05/29 08:16:47;;;;;;;21.63;4.80;;;16.50;95.50;;;;;;5025698;28;20448;-35
2023/05/29 08:19:15;;;;;;;23.02;4.20;;;16.60;94.90;;;;;;5028969;28;20454;-34
2023/05/29 08:21:42;;;;;;;21.40;4.65;;;16.70;94.60;;;;;;5028275;28;20119;-34
2023/05/29 08:24:09;;;;;;;22.52;4.80;;;16.70;94.70;;;;;;5028945;28;20493;-34
2023/05/29 08:26:36;;;;;;;20.25;4.30;;;16.80;94.10;;;;;;5033972;28;20061;-35
2023/05/29 08:29:03;;;;;;;15.52;3.88;;;16.80;93.80;;;;;;5033330;28;20473;-32
2023/05/29 08:31:30;;;;;;;17.15;3.97;;;16.90;93.60;;;;;;5030233;28;20503;-35
2023/05/29 08:33:57;;;;;;;20.65;3.72;;;17.00;93.30;;;;;;5029466;28;20108;-35
2023/05/29 08:36:25;;;;;;;17.23;4.50;;;17.00;92.90;;;;;;5030855;28;20049;-36
2023/05/29 08:38:52;;;;;;;18.10;4.45;;;16.90;92.70;;;;;;5027237;28;20072;-34
2023/05/29 08:41:23;;;;;;;22.30;4.55;;;16.90;92.50;;;;;;5027917;28;20108;-35
2023/05/29 08:43:50;;;;;;;27.03;4.83;;;16.90;92.50;;;;;;5027805;28;20049;-33
2023/05/29 08:46:17;;;;;;;31.95;5.25;;;17.00;92.60;;;;;;5020890;28;20053;-35
2023/05/29 08:48:45;;;;;;;22.38;3.83;;;17.10;92.50;;;;;;5026708;28;20085;-35
2023/05/29 08:51:12;;;;;;;18.45;4.15;;;17.20;91.90;;;;;;5021494;28;20049;-31
2023/05/29 08:53:40;;;;;;;19.15;4.47;;;17.20;91.50;;;;;;5022479;28;20560;-35
2023/05/29 08:56:06;;;;;;;22.40;4.20;;;17.20;91.70;;;;;;5027273;28;20099;-33
2023/05/29 08:58:33;;;;;;;17.77;4.10;;;17.20;91.30;;;;;;5029843;28;20512;-35
2023/05/29 09:01:00;;;;;;;18.42;4.22;;;17.30;91.50;;;;;;5027666;28;20137;-35
2023/05/29 09:03:27;;;;;;;19.75;4.70;;;17.40;91.50;;;;;;5024695;28;20058;-35
2023/05/29 09:05:56;;;;;;;24.50;4.95;;;17.40;91.40;;;;;;5027757;28;20069;-34
2023/05/29 09:08:23;;;;;;;17.63;4.07;;;17.40;91.40;;;;;;5031688;28;20049;-35
2023/05/29 09:10:51;;;;;;;24.25;5.18;;;17.50;91.60;;;;;;5029836;28;20059;-34
2023/05/29 09:13:18;;;;;;;19.38;4.65;;;17.60;91.30;;;;;;5031184;28;20088;-35
2023/05/29 09:15:45;;;;;;;15.50;4.00;;;17.70;91.20;;;;;;5028468;28;20442;-34
2023/05/29 09:18:12;;;;;;;20.95;4.35;;;17.80;90.80;;;;;;5031130;28;20464;-34
2023/05/29 09:20:39;;;;;;;22.00;4.50;;;17.80;90.50;;;;;;5027362;28;20133;-34
2023/05/29 09:23:08;;;;;;;16.17;3.80;;;17.90;90.40;;;;;;5028448;28;20057;-35
2023/05/29 09:25:36;;;;;;;22.30;4.53;;;18.00;90.50;;;;;;5029544;28;20404;-35
2023/05/29 09:28:05;;;;;;;17.73;4.15;;;18.10;90.20;;;;;;5030898;28;20050;-36
2023/05/29 09:30:34;;;;;;;18.65;3.72;;;18.20;89.20;;;;;;5030395;28;20053;-35
2023/05/29 09:33:01;;;;;;;19.35;3.88;;;18.10;89.30;;;;;;5031016;28;20509;-36
2023/05/29 09:35:35;;;;;;;15.00;3.90;;;18.10;88.90;;;;;;5031816;28;20135;-36
2023/05/29 09:38:02;;;;;;;20.80;4.35;;;18.10;89.00;;;;;;5031970;28;20128;-35
2023/05/29 09:40:33;;;;;;;21.27;4.35;;;18.20;89.00;;;;;;5031252;28;20053;-35
2023/05/29 09:43:07;;;;;;;17.45;4.10;;;18.30;88.70;;;;;;5030715;28;20050;-35
2023/05/29 09:45:39;;;;;;;17.23;4.22;;;18.50;89.60;;;;;;5030041;28;20068;-35
2023/05/29 09:48:07;;;;;;;18.73;4.35;;;18.70;89.40;;;;;;5023951;28;20132;-33
2023/05/29 09:50:34;;;;;;;16.13;4.15;;;18.80;88.50;;;;;;5029682;28;20071;-34
2023/05/29 09:53:01;;;;;;;20.40;4.15;;;18.90;87.50;;;;;;5026621;28;20130;-36
2023/05/29 09:55:30;;;;;;;17.13;4.22;;;18.80;85.60;;;;;;5029691;28;20045;-36
2023/05/29 09:57:57;;;;;;;16.27;4.38;;;18.70;85.10;;;;;;5030993;28;20141;-35
2023/05/29 10:00:25;;;;;;;17.52;4.43;;;18.60;84.50;;;;;;5028277;28;20061;-34
2023/05/29 10:02:52;;;;;;;18.15;3.95;;;18.70;84.00;;;;;;5025356;28;20053;-34
2023/05/29 10:05:18;;;;;;;24.95;5.07;;;18.60;84.20;;;;;;5026886;28;20535;-34
2023/05/29 10:07:48;;;;;;;22.90;4.85;;;18.60;83.80;;;;;;5024601;28;20135;-34
2023/05/29 10:10:15;;;;;;;19.77;4.18;;;18.50;83.70;;;;;;5014779;28;20563;-34
2023/05/29 10:16:02;;;;;;;21.25;5.20;;;18.70;84.70;;;;;;4989239;28;20524;-36
2023/05/29 10:18:33;;;;;;;18.85;3.92;;;18.90;84.60;;;;;;4992063;28;20129;-34
2023/05/29 10:21:00;;;;;;;15.20;4.03;;;19.10;84.70;;;;;;4986191;28;20046;-32
2023/05/29 10:23:26;;;;;;;22.65;4.55;;;19.20;84.50;;;;;;5005168;28;20169;-35
2023/05/29 10:25:54;;;;;;;15.75;3.75;;;19.40;84.00;;;;;;4990959;28;20137;-35
2023/05/29 10:28:21;;;;;;;17.05;4.22;;;19.60;84.00;;;;;;4982385;28;20290;-36
2023/05/29 10:30:50;;;;;;;23.67;4.47;;;19.60;83.00;;;;;;4993111;28;20047;-35
2023/05/29 10:33:45;;;;;;;17.05;4.10;;;19.80;83.10;;;;;;4991817;28;20058;-35
2023/05/29 10:36:14;;;;;;;18.45;4.00;;;19.90;83.00;;;;;;4990038;28;20073;-36
2023/05/29 10:38:41;;;;;;;22.38;4.95;;;20.10;82.30;;;;;;4991896;28;20057;-35
2023/05/29 10:41:31;;;;;;;15.38;4.30;;;20.20;81.20;;;;;;4990962;28;20042;-36
2023/05/29 10:43:58;;;;;;;17.42;3.88;;;20.20;81.00;;;;;;4988450;28;20401;-36
2023/05/29 10:47:04;;;;;;;21.80;4.13;;;20.20;79.90;;;;;;4991130;28;20509;-36
2023/05/29 10:49:57;;;;;;;23.08;4.63;;;20.10;78.70;;;;;;5003476;23;20063;-33
2023/05/29 10:53:14;;;;;;;17.02;4.45;;;20.00;78.30;;;;;;4984024;28;20118;-37
2023/05/29 10:55:41;;;;;;;19.60;4.13;;;20.00;79.90;;;;;;4985674;28;20054;-36
2023/05/29 10:58:08;;;;;;;19.95;4.28;;;20.10;79.30;;;;;;4983915;28;20133;-36
2023/05/29 11:00:35;;;;;;;21.20;4.25;;;20.20;79.30;;;;;;4978278;28;20129;-36
2023/05/29 11:03:03;;;;;;;15.23;3.53;;;20.40;79.00;;;;;;4985840;28;20105;-34
2023/05/29 11:05:31;;;;;;;18.65;4.10;;;20.60;78.10;;;;;;4976344;28;20082;-35
2023/05/29 11:07:59;;;;;;;15.73;4.30;;;20.70;75.90;;;;;;4981385;28;20047;-34
2023/05/29 11:10:44;;;;;;;18.52;4.50;;;20.50;76.70;;;;;;4981904;28;20050;-35
2023/05/29 11:13:11;;;;;;;19.77;4.22;;;20.60;75.90;;;;;;4979686;28;20391;-35
2023/05/29 11:15:38;;;;;;;17.45;3.97;;;20.60;77.10;;;;;;4984208;28;20050;-36
2023/05/29 11:18:08;;;;;;;18.42;4.22;;;20.70;77.00;;;;;;4984726;28;20505;-36
2023/05/29 11:20:44;;;;;;;15.18;4.38;;;20.70;75.60;;;;;;4985905;28;20089;-36
2023/05/29 11:23:17;;;;;;;23.17;4.75;;;20.80;74.90;;;;;;4977107;28;20065;-36
2023/05/29 11:25:45;;;;;;;15.90;3.95;;;20.70;73.90;;;;;;4979881;28;20050;-36
2023/05/29 11:28:12;;;;;;;16.92;4.20;;;20.50;74.00;;;;;;4974735;28;20054;-36
2023/05/29 11:30:46;;;;;;;16.80;3.83;;;20.60;74.30;;;;;;4979398;28;20050;-36
2023/05/29 11:33:23;;;;;;;15.00;3.67;;;20.70;75.60;;;;;;4982988;28;20062;-35
2023/05/29 11:35:56;;;;;;;19.67;4.20;;;20.90;75.60;;;;;;4978874;28;20527;-35
2023/05/29 11:38:23;;;;;;;17.10;3.65;;;21.30;74.60;;;;;;4987614;28;20402;-36
2023/05/29 11:40:49;;;;;;;16.23;4.22;;;21.30;72.20;;;;;;4984165;28;20129;-36
2023/05/29 11:43:16;;;;;;;15.55;3.53;;;21.30;72.80;;;;;;4977397;28;20082;-36
2023/05/29 11:45:43;;;;;;;19.52;4.10;;;21.30;71.30;;;;;;4986809;28;20170;-36
2023/05/29 11:48:10;;;;;;;16.85;3.78;;;21.20;71.60;;;;;;4989019;28;20100;-35
2023/05/29 11:50:37;;;;;;;17.52;3.63;;;21.20;71.80;;;;;;4984608;28;20096;-36
2023/05/29 11:53:58;;;;;;;14.32;4.10;;;21.40;70.90;;;;;;4976777;28;20439;-36
2023/05/29 11:56:26;;;;;;;14.18;3.60;;;21.40;67.10;;;;;;4978977;28;20051;-36
2023/05/29 11:58:55;;;;;;;18.23;3.97;;;21.20;70.50;;;;;;4975267;28;20407;-35
2023/05/29 12:01:23;;;;;;;17.13;4.15;;;21.10;71.00;;;;;;4984221;28;20054;-37
2023/05/29 12:03:50;;;;;;;15.10;3.88;;;21.30;71.50;;;;;;4988661;28;20061;-36
2023/05/29 12:06:17;;;;;;;15.95;3.60;;;21.30;71.80;;;;;;4984207;28;20481;-36
2023/05/29 12:08:44;;;;;;;17.15;3.22;;;21.30;71.40;;;;;;4990017;28;20105;-35
2023/05/29 12:11:10;;;;;;;15.68;4.07;;;21.40;72.00;;;;;;4986558;28;20113;-36
2023/05/29 12:13:38;;;;;;;15.57;3.92;;;21.40;71.70;;;;;;4989594;28;20054;-36
2023/05/29 12:16:05;;;;;;;16.98;4.13;;;21.60;70.30;;;;;;4988948;28;20134;-36
2023/05/29 12:18:33;;;;;;;12.43;3.22;;;21.70;70.40;;;;;;4989163;28;20475;-35
2023/05/29 12:21:01;;;;;;;14.10;3.55;;;21.80;70.50;;;;;;4981574;28;20263;-34
2023/05/29 12:23:28;;;;;;;19.80;4.38;;;21.90;69.30;;;;;;4981148;28;20058;-35
2023/05/29 12:25:55;;;;;;;14.40;3.80;;;21.90;68.50;;;;;;4987526;28;20046;-35
2023/05/29 12:28:22;;;;;;;15.68;3.38;;;21.70;68.60;;;;;;4990019;28;20403;-36
2023/05/29 12:30:51;;;;;;;17.48;4.15;;;21.80;68.60;;;;;;4982374;28;20086;-36
2023/05/29 12:33:29;;;;;;;14.30;3.38;;;21.80;68.20;;;;;;4983180;28;20058;-36
2023/05/29 12:35:56;;;;;;;15.82;3.92;;;21.80;69.70;;;;;;4979152;28;20538;-35
2023/05/29 12:38:24;;;;;;;16.30;3.55;;;21.90;69.80;;;;;;4986255;28;20055;-36
2023/05/29 12:40:52;;;;;;;13.27;3.28;;;22.00;70.00;;;;;;4981367;28;20318;-36
2023/05/29 12:43:18;;;;;;;17.77;4.07;;;22.10;69.80;;;;;;4985102;28;20059;-36
2023/05/29 12:45:45;;;;;;;18.95;3.63;;;22.00;69.00;;;;;;4986704;28;20050;-36